sensor_id;sensor_type;location;lat;lon;timestamp;pressure;altitude;pressure_sealevel;temperature;humidity
14242;BME280;7205;50.864;12.766;2022-07-30T00:00:20;97577.19;;;19.11;84.71
14242;BME280;7205;50.864;12.766;2022-07-30T00:02:56;97563.38;;;19.14;84.72
14242;BME280;7205;50.864;12.766;2022-07-30T00:05:33;97562.56;;;19.13;84.52
14242;BME280;7205;50.864;12.766;2022-07-30T00:08:04;97556.59;;;19.11;84.54
14242;BME280;7205;50.864;12.766;2022-07-30T00:10:32;97555.78;;;19.11;84.70
14242;BME280;7205;50.864;12.766;2022-07-30T00:13:00;97556.38;;;19.13;84.71
14242;BME280;7205;50.864;12.766;2022-07-30T00:15:29;97553.94;;;19.11;84.61
14242;BME280;7205;50.864;12.766;2022-07-30T00:18:00;97566.72;;;19.09;84.79
14242;BME280;7205;50.864;12.766;2022-07-30T00:20:30;97566.50;;;19.11;85.00
14242;BME280;7205;50.864;12.766;2022-07-30T00:23:06;97568.13;;;19.12;85.27
14242;BME280;7205;50.864;12.766;2022-07-30T00:25:33;97570.34;;;19.15;85.31
14242;BME280;7205;50.864;12.766;2022-07-30T00:28:04;97571.16;;;19.15;85.34
14242;BME280;7205;50.864;12.766;2022-07-30T00:30:31;97568.25;;;19.17;85.60
14242;BME280;7205;50.864;12.766;2022-07-30T00:32:58;97556.50;;;19.18;85.67
14242;BME280;7205;50.864;12.766;2022-07-30T00:35:26;97563.72;;;19.17;85.35
14242;BME280;7205;50.864;12.766;2022-07-30T00:37:52;97562.91;;;19.17;85.17
14242;BME280;7205;50.864;12.766;2022-07-30T00:40:19;97551.84;;;19.13;85.41
14242;BME280;7205;50.864;12.766;2022-07-30T00:42:47;97560.09;;;19.12;85.47
14242;BME280;7205;50.864;12.766;2022-07-30T00:45:18;97555.44;;;19.07;85.21
14242;BME280;7205;50.864;12.766;2022-07-30T00:47:45;97551.00;;;19.01;85.36
14242;BME280;7205;50.864;12.766;2022-07-30T00:50:13;97549.38;;;19.00;85.68
14242;BME280;7205;50.864;12.766;2022-07-30T00:52:41;97548.19;;;18.96;86.03
14242;BME280;7205;50.864;12.766;2022-07-30T00:55:10;97553.19;;;18.93;85.83
14242;BME280;7205;50.864;12.766;2022-07-30T00:57:37;97548.78;;;18.87;86.29
14242;BME280;7205;50.864;12.766;2022-07-30T01:00:07;97553.75;;;18.83;86.59
14242;BME280;7205;50.864;12.766;2022-07-30T01:02:36;97546.66;;;18.77;86.72
14242;BME280;7205;50.864;12.766;2022-07-30T01:05:04;97541.75;;;18.74;86.94
14242;BME280;7205;50.864;12.766;2022-07-30T01:07:31;97546.97;;;18.69;87.09
14242;BME280;7205;50.864;12.766;2022-07-30T01:09:58;97551.16;;;18.65;87.29
14242;BME280;7205;50.864;12.766;2022-07-30T01:12:26;97548.13;;;18.61;87.42
14242;BME280;7205;50.864;12.766;2022-07-30T01:14:54;97547.75;;;18.58;87.75
14242;BME280;7205;50.864;12.766;2022-07-30T01:17:22;97546.13;;;18.57;88.09
14242;BME280;7205;50.864;12.766;2022-07-30T01:19:53;97549.00;;;18.55;88.15
14242;BME280;7205;50.864;12.766;2022-07-30T01:22:34;97545.78;;;18.53;88.30
14242;BME280;7205;50.864;12.766;2022-07-30T01:25:08;97545.19;;;18.51;88.42
14242;BME280;7205;50.864;12.766;2022-07-30T01:27:40;97544.34;;;18.51;88.45
14242;BME280;7205;50.864;12.766;2022-07-30T01:30:10;97536.56;;;18.49;88.56
14242;BME280;7205;50.864;12.766;2022-07-30T01:32:39;97539.69;;;18.46;88.65
14242;BME280;7205;50.864;12.766;2022-07-30T01:35:08;97546.06;;;18.45;88.82
14242;BME280;7205;50.864;12.766;2022-07-30T01:37:37;97539.09;;;18.44;88.99
14242;BME280;7205;50.864;12.766;2022-07-30T01:40:05;97539.34;;;18.43;89.09
14242;BME280;7205;50.864;12.766;2022-07-30T01:42:33;97538.28;;;18.44;89.04
14242;BME280;7205;50.864;12.766;2022-07-30T01:45:05;97532.94;;;18.44;89.53
14242;BME280;7205;50.864;12.766;2022-07-30T01:47:34;97526.56;;;18.45;89.71
14242;BME280;7205;50.864;12.766;2022-07-30T01:50:07;97533.53;;;18.46;89.84
14242;BME280;7205;50.864;12.766;2022-07-30T01:52:42;97530.63;;;18.47;89.93
14242;BME280;7205;50.864;12.766;2022-07-30T01:55:13;97535.97;;;18.47;89.97
14242;BME280;7205;50.864;12.766;2022-07-30T01:57:41;97536.78;;;18.48;89.83
14242;BME280;7205;50.864;12.766;2022-07-30T02:00:11;97537.16;;;18.51;90.01
14242;BME280;7205;50.864;12.766;2022-07-30T02:02:42;97535.31;;;18.52;90.24
14242;BME280;7205;50.864;12.766;2022-07-30T02:05:09;97547.41;;;18.54;90.29
14242;BME280;7205;50.864;12.766;2022-07-30T02:07:45;97540.44;;;18.53;90.34
14242;BME280;7205;50.864;12.766;2022-07-30T02:10:20;97537.75;;;18.53;90.43
14242;BME280;7205;50.864;12.766;2022-07-30T02:12:54;97540.78;;;18.57;90.41
14242;BME280;7205;50.864;12.766;2022-07-30T02:15:27;97538.91;;;18.57;90.37
14242;BME280;7205;50.864;12.766;2022-07-30T02:18:01;97536.22;;;18.57;90.53
14242;BME280;7205;50.864;12.766;2022-07-30T02:20:29;97535.22;;;18.58;90.32
14242;BME280;7205;50.864;12.766;2022-07-30T02:23:02;97532.97;;;18.55;90.21
14242;BME280;7205;50.864;12.766;2022-07-30T02:25:33;97540.44;;;18.53;90.14
14242;BME280;7205;50.864;12.766;2022-07-30T02:28:04;97545.19;;;18.51;90.09
14242;BME280;7205;50.864;12.766;2022-07-30T02:30:43;97548.09;;;18.50;90.29
14242;BME280;7205;50.864;12.766;2022-07-30T02:33:13;97548.09;;;18.50;90.42
14242;BME280;7205;50.864;12.766;2022-07-30T02:35:41;97548.88;;;18.50;90.52
14242;BME280;7205;50.864;12.766;2022-07-30T02:38:10;97555.06;;;18.51;90.75
14242;BME280;7205;50.864;12.766;2022-07-30T02:40:39;97557.28;;;18.54;90.99
14242;BME280;7205;50.864;12.766;2022-07-30T02:43:08;97559.72;;;18.55;91.16
14242;BME280;7205;50.864;12.766;2022-07-30T02:45:36;97563.81;;;18.58;91.43
14242;BME280;7205;50.864;12.766;2022-07-30T02:48:06;97555.91;;;18.63;91.57
14242;BME280;7205;50.864;12.766;2022-07-30T02:50:38;97559.97;;;18.65;91.29
14242;BME280;7205;50.864;12.766;2022-07-30T02:53:09;97552.78;;;18.66;90.98
14242;BME280;7205;50.864;12.766;2022-07-30T02:55:40;97547.19;;;18.67;91.00
14242;BME280;7205;50.864;12.766;2022-07-30T02:58:09;97542.09;;;18.66;90.86
14242;BME280;7205;50.864;12.766;2022-07-30T03:00:37;97543.13;;;18.65;90.61
14242;BME280;7205;50.864;12.766;2022-07-30T03:03:06;97542.53;;;18.63;90.82
14242;BME280;7205;50.864;12.766;2022-07-30T03:05:37;97546.03;;;18.63;90.86
14242;BME280;7205;50.864;12.766;2022-07-30T03:08:05;97544.16;;;18.64;91.18
14242;BME280;7205;50.864;12.766;2022-07-30T03:10:33;97538.38;;;18.67;91.41
14242;BME280;7205;50.864;12.766;2022-07-30T03:13:03;97537.56;;;18.66;91.11
14242;BME280;7205;50.864;12.766;2022-07-30T03:15:33;97530.56;;;18.65;90.90
14242;BME280;7205;50.864;12.766;2022-07-30T03:18:06;97534.28;;;18.64;90.54
14242;BME280;7205;50.864;12.766;2022-07-30T03:20:38;97533.09;;;18.60;90.29
14242;BME280;7205;50.864;12.766;2022-07-30T03:23:06;97523.91;;;18.56;90.10
14242;BME280;7205;50.864;12.766;2022-07-30T03:25:38;97519.47;;;18.50;90.02
14242;BME280;7205;50.864;12.766;2022-07-30T03:28:07;97523.06;;;18.44;89.85
14242;BME280;7205;50.864;12.766;2022-07-30T03:30:34;97521.50;;;18.37;89.96
14242;BME280;7205;50.864;12.766;2022-07-30T03:33:01;97528.34;;;18.33;90.19
14242;BME280;7205;50.864;12.766;2022-07-30T03:35:30;97521.22;;;18.27;90.48
14242;BME280;7205;50.864;12.766;2022-07-30T03:37:58;97523.78;;;18.22;90.76
14242;BME280;7205;50.864;12.766;2022-07-30T03:40:27;97525.84;;;18.20;90.95
14242;BME280;7205;50.864;12.766;2022-07-30T03:42:55;97521.75;;;18.17;91.18
14242;BME280;7205;50.864;12.766;2022-07-30T03:45:24;97509.06;;;18.13;91.44
14242;BME280;7205;50.864;12.766;2022-07-30T03:47:57;97510.13;;;18.12;91.51
14242;BME280;7205;50.864;12.766;2022-07-30T03:50:26;97509.53;;;18.10;91.65
14242;BME280;7205;50.864;12.766;2022-07-30T03:52:55;97518.81;;;18.07;91.96
14242;BME280;7205;50.864;12.766;2022-07-30T03:55:23;97527.63;;;18.08;92.43
14242;BME280;7205;50.864;12.766;2022-07-30T03:58:09;97533.81;;;18.08;92.95
14242;BME280;7205;50.864;12.766;2022-07-30T04:00:38;97524.50;;;18.11;93.26
14242;BME280;7205;50.864;12.766;2022-07-30T04:03:05;97526.72;;;18.14;93.33
14242;BME280;7205;50.864;12.766;2022-07-30T04:06:01;97536.16;;;18.16;93.34
14242;BME280;7205;50.864;12.766;2022-07-30T04:08:30;97544.56;;;18.20;93.30
14242;BME280;7205;50.864;12.766;2022-07-30T04:10:57;97547.00;;;18.21;92.97
14242;BME280;7205;50.864;12.766;2022-07-30T04:13:59;97545.34;;;18.20;92.98
14242;BME280;7205;50.864;12.766;2022-07-30T04:16:34;97547.00;;;18.21;92.88
14242;BME280;7205;50.864;12.766;2022-07-30T04:19:06;97553.19;;;18.22;93.00
14242;BME280;7205;50.864;12.766;2022-07-30T04:21:39;97554.56;;;18.24;93.23
14242;BME280;7205;50.864;12.766;2022-07-30T04:24:13;97560.06;;;18.29;92.98
14242;BME280;7205;50.864;12.766;2022-07-30T04:26:42;97560.06;;;18.29;92.72
14242;BME280;7205;50.864;12.766;2022-07-30T04:29:10;97551.81;;;18.31;92.79
14242;BME280;7205;50.864;12.766;2022-07-30T04:31:38;97556.47;;;18.35;92.84
14242;BME280;7205;50.864;12.766;2022-07-30T04:34:21;97558.13;;;18.36;92.79
14242;BME280;7205;50.864;12.766;2022-07-30T04:36:48;97550.91;;;18.37;92.42
14242;BME280;7205;50.864;12.766;2022-07-30T04:39:17;97559.72;;;18.37;92.31
14242;BME280;7205;50.864;12.766;2022-07-30T04:41:44;97557.88;;;18.38;92.35
14242;BME280;7205;50.864;12.766;2022-07-30T04:44:29;97566.72;;;18.38;92.25
14242;BME280;7205;50.864;12.766;2022-07-30T04:47:31;97558.13;;;18.36;92.27
14242;BME280;7205;50.864;12.766;2022-07-30T04:50:20;97557.06;;;18.37;92.47
14242;BME280;7205;50.864;12.766;2022-07-30T04:52:49;97559.91;;;18.42;92.74
14242;BME280;7205;50.864;12.766;2022-07-30T04:55:30;97554.31;;;18.44;92.07
14242;BME280;7205;50.864;12.766;2022-07-30T04:58:06;97555.16;;;18.44;92.01
14242;BME280;7205;50.864;12.766;2022-07-30T05:00:35;97560.50;;;18.44;91.90
14242;BME280;7205;50.864;12.766;2022-07-30T05:03:18;97564.00;;;18.45;91.99
14242;BME280;7205;50.864;12.766;2022-07-30T05:05:49;97563.53;;;18.48;92.10
14242;BME280;7205;50.864;12.766;2022-07-30T05:08:17;97564.94;;;18.50;92.05
14242;BME280;7205;50.864;12.766;2022-07-30T05:10:46;97561.81;;;18.53;91.84
14242;BME280;7205;50.864;12.766;2022-07-30T05:13:13;97568.34;;;18.57;92.01
14242;BME280;7205;50.864;12.766;2022-07-30T05:15:41;97564.41;;;18.60;91.88
14242;BME280;7205;50.864;12.766;2022-07-30T05:18:11;97562.09;;;18.63;91.88
14242;BME280;7205;50.864;12.766;2022-07-30T05:20:41;97564.31;;;18.66;91.28
14242;BME280;7205;50.864;12.766;2022-07-30T05:23:25;97559.78;;;18.67;90.99
14242;BME280;7205;50.864;12.766;2022-07-30T05:26:08;97562.22;;;18.68;90.58
14242;BME280;7205;50.864;12.766;2022-07-30T05:28:40;97560.34;;;18.69;90.37
14242;BME280;7205;50.864;12.766;2022-07-30T05:31:11;97559.09;;;18.71;90.30
14242;BME280;7205;50.864;12.766;2022-07-30T05:33:38;97567.94;;;18.72;89.96
14242;BME280;7205;50.864;12.766;2022-07-30T05:36:07;97555.59;;;18.71;89.78
14242;BME280;7205;50.864;12.766;2022-07-30T05:38:42;97550.47;;;18.69;89.44
14242;BME280;7205;50.864;12.766;2022-07-30T05:41:30;97557.91;;;18.67;89.27
14242;BME280;7205;50.864;12.766;2022-07-30T05:44:04;97560.56;;;18.67;89.47
14242;BME280;7205;50.864;12.766;2022-07-30T05:46:31;97557.91;;;18.67;89.42
14242;BME280;7205;50.864;12.766;2022-07-30T05:48:58;97556.88;;;18.68;89.34
14242;BME280;7205;50.864;12.766;2022-07-30T05:51:34;97558.97;;;18.66;89.08
14242;BME280;7205;50.864;12.766;2022-07-30T05:54:01;97561.88;;;18.65;89.08
14242;BME280;7205;50.864;12.766;2022-07-30T05:57:04;97558.81;;;18.61;89.20
14242;BME280;7205;50.864;12.766;2022-07-30T05:59:34;97559.06;;;18.60;89.35
14242;BME280;7205;50.864;12.766;2022-07-30T06:02:07;97572.66;;;18.58;89.31
14242;BME280;7205;50.864;12.766;2022-07-30T06:04:54;97570.41;;;18.55;89.41
14242;BME280;7205;50.864;12.766;2022-07-30T06:07:22;97567.97;;;18.54;89.56
14242;BME280;7205;50.864;12.766;2022-07-30T06:09:50;97582.16;;;18.54;89.80
14242;BME280;7205;50.864;12.766;2022-07-30T06:12:21;97576.00;;;18.54;89.86
14242;BME280;7205;50.864;12.766;2022-07-30T06:14:48;97581.13;;;18.55;90.24
14242;BME280;7205;50.864;12.766;2022-07-30T06:17:22;97587.06;;;18.57;90.24
14242;BME280;7205;50.864;12.766;2022-07-30T06:20:12;97585.22;;;18.58;90.27
14242;BME280;7205;50.864;12.766;2022-07-30T06:22:54;97589.13;;;18.55;89.98
14242;BME280;7205;50.864;12.766;2022-07-30T06:25:29;97592.03;;;18.54;90.03
14242;BME280;7205;50.864;12.766;2022-07-30T06:27:58;97592.28;;;18.52;90.25
14242;BME280;7205;50.864;12.766;2022-07-30T06:30:26;97588.81;;;18.52;90.25
14242;BME280;7205;50.864;12.766;2022-07-30T06:32:54;97600.06;;;18.54;90.51
14242;BME280;7205;50.864;12.766;2022-07-30T06:35:22;97599.84;;;18.55;90.85
14242;BME280;7205;50.864;12.766;2022-07-30T06:37:51;97603.94;;;18.58;90.63
14242;BME280;7205;50.864;12.766;2022-07-30T06:40:20;97605.31;;;18.60;91.10
14242;BME280;7205;50.864;12.766;2022-07-30T06:43:02;97600.34;;;18.64;91.01
14242;BME280;7205;50.864;12.766;2022-07-30T06:45:49;97602.59;;;18.67;90.97
14242;BME280;7205;50.864;12.766;2022-07-30T06:48:29;97609.78;;;18.66;90.51
14242;BME280;7205;50.864;12.766;2022-07-30T06:50:59;97600.09;;;18.65;90.26
14242;BME280;7205;50.864;12.766;2022-07-30T06:53:27;97612.69;;;18.65;90.35
14242;BME280;7205;50.864;12.766;2022-07-30T06:56:14;97612.91;;;18.63;90.67
14242;BME280;7205;50.864;12.766;2022-07-30T06:58:56;97617.66;;;18.61;90.35
14242;BME280;7205;50.864;12.766;2022-07-30T07:01:41;97615.22;;;18.60;90.65
14242;BME280;7205;50.864;12.766;2022-07-30T07:04:10;97617.66;;;18.61;90.80
14242;BME280;7205;50.864;12.766;2022-07-30T07:06:38;97618.28;;;18.63;90.62
14242;BME280;7205;50.864;12.766;2022-07-30T07:09:06;97620.13;;;18.63;90.85
14242;BME280;7205;50.864;12.766;2022-07-30T07:11:40;97613.28;;;18.67;91.14
14242;BME280;7205;50.864;12.766;2022-07-30T07:14:12;97621.44;;;18.72;90.85
14242;BME280;7205;50.864;12.766;2022-07-30T07:16:39;97613.56;;;18.77;91.12
14242;BME280;7205;50.864;12.766;2022-07-30T07:19:28;97614.03;;;18.86;91.50
14242;BME280;7205;50.864;12.766;2022-07-30T07:21:55;97614.88;;;18.98;91.50
14242;BME280;7205;50.864;12.766;2022-07-30T07:24:23;97616.19;;;19.07;90.88
14242;BME280;7205;50.864;12.766;2022-07-30T07:26:56;97613.19;;;19.15;90.26
14242;BME280;7205;50.864;12.766;2022-07-30T07:29:26;97619.25;;;19.22;89.72
14242;BME280;7205;50.864;12.766;2022-07-30T07:31:53;97618.72;;;19.31;89.85
14242;BME280;7205;50.864;12.766;2022-07-30T07:34:20;97616.28;;;19.41;89.82
14242;BME280;7205;50.864;12.766;2022-07-30T07:36:47;97622.94;;;19.50;89.19
14242;BME280;7205;50.864;12.766;2022-07-30T07:39:14;97621.28;;;19.61;88.28
14242;BME280;7205;50.864;12.766;2022-07-30T07:41:43;97618.72;;;19.66;87.25
14242;BME280;7205;50.864;12.766;2022-07-30T07:44:11;97631.22;;;19.72;86.82
14242;BME280;7205;50.864;12.766;2022-07-30T07:46:39;97628.06;;;19.75;86.00
14242;BME280;7205;50.864;12.766;2022-07-30T07:49:06;97624.00;;;19.72;85.33
14242;BME280;7205;50.864;12.766;2022-07-30T07:51:38;97625.03;;;19.71;85.27
14242;BME280;7205;50.864;12.766;2022-07-30T07:54:08;97630.03;;;19.68;85.14
14242;BME280;7205;50.864;12.766;2022-07-30T07:56:35;97626.56;;;19.67;84.82
14242;BME280;7205;50.864;12.766;2022-07-30T07:59:02;97626.22;;;19.64;84.72
14242;BME280;7205;50.864;12.766;2022-07-30T08:01:29;97628.53;;;19.60;84.36
14242;BME280;7205;50.864;12.766;2022-07-30T08:04:16;97631.91;;;19.56;84.42
14242;BME280;7205;50.864;12.766;2022-07-30T08:07:02;97632.94;;;19.55;84.91
14242;BME280;7205;50.864;12.766;2022-07-30T08:09:38;97632.72;;;19.56;84.97
14242;BME280;7205;50.864;12.766;2022-07-30T08:12:18;97640.28;;;19.59;85.08
14242;BME280;7205;50.864;12.766;2022-07-30T08:15:20;97636.81;;;19.59;84.70
14242;BME280;7205;50.864;12.766;2022-07-30T08:18:06;97640.88;;;19.61;85.14
14242;BME280;7205;50.864;12.766;2022-07-30T08:20:42;97636.81;;;19.70;85.75
14242;BME280;7205;50.864;12.766;2022-07-30T08:23:13;97645.69;;;19.82;86.07
14242;BME280;7205;50.864;12.766;2022-07-30T08:25:40;97639.84;;;19.97;86.20
14242;BME280;7205;50.864;12.766;2022-07-30T08:28:08;97638.22;;;20.08;85.35
14242;BME280;7205;50.864;12.766;2022-07-30T08:30:35;97644.03;;;20.16;84.61
14242;BME280;7205;50.864;12.766;2022-07-30T08:33:02;97643.94;;;20.23;84.24
14242;BME280;7205;50.864;12.766;2022-07-30T08:35:29;97648.56;;;20.27;83.83
14242;BME280;7205;50.864;12.766;2022-07-30T08:37:58;97645.75;;;20.34;83.55
14242;BME280;7205;50.864;12.766;2022-07-30T08:40:25;97652.28;;;20.38;82.62
14242;BME280;7205;50.864;12.766;2022-07-30T08:43:02;97653.47;;;20.30;81.15
14242;BME280;7205;50.864;12.766;2022-07-30T08:45:30;97656.75;;;20.21;80.58
14242;BME280;7205;50.864;12.766;2022-07-30T08:48:00;97661.75;;;20.06;80.40
14242;BME280;7205;50.864;12.766;2022-07-30T08:50:37;97663.72;;;19.87;80.37
14242;BME280;7205;50.864;12.766;2022-07-30T08:53:24;97656.25;;;19.66;80.30
14242;BME280;7205;50.864;12.766;2022-07-30T08:55:53;97660.69;;;19.49;80.60
14242;BME280;7205;50.864;12.766;2022-07-30T08:58:27;97671.03;;;19.34;80.63
14242;BME280;7205;50.864;12.766;2022-07-30T09:00:54;97673.41;;;19.24;80.82
14242;BME280;7205;50.864;12.766;2022-07-30T09:03:21;97673.16;;;19.14;80.74
14242;BME280;7205;50.864;12.766;2022-07-30T09:05:48;97684.97;;;19.06;80.56
14242;BME280;7205;50.864;12.766;2022-07-30T09:08:15;97679.13;;;18.98;80.37
14242;BME280;7205;50.864;12.766;2022-07-30T09:10:46;97686.41;;;18.91;80.72
14242;BME280;7205;50.864;12.766;2022-07-30T09:13:25;97680.34;;;18.84;80.91
14242;BME280;7205;50.864;12.766;2022-07-30T09:15:53;97682.22;;;18.83;81.44
14242;BME280;7205;50.864;12.766;2022-07-30T09:18:26;97685.13;;;18.82;81.36
14242;BME280;7205;50.864;12.766;2022-07-30T09:20:54;97691.50;;;18.81;81.62
14242;BME280;7205;50.864;12.766;2022-07-30T09:23:22;97689.88;;;18.80;81.69
14242;BME280;7205;50.864;12.766;2022-07-30T09:26:09;97697.53;;;18.76;81.19
14242;BME280;7205;50.864;12.766;2022-07-30T09:28:39;97699.47;;;18.69;81.10
14242;BME280;7205;50.864;12.766;2022-07-30T09:31:12;97691.28;;;18.64;81.35
14242;BME280;7205;50.864;12.766;2022-07-30T09:33:57;97698.16;;;18.60;81.37
14242;BME280;7205;50.864;12.766;2022-07-30T09:36:43;97701.47;;;18.55;81.81
14242;BME280;7205;50.864;12.766;2022-07-30T09:39:30;97688.56;;;18.52;82.18
14242;BME280;7205;50.864;12.766;2022-07-30T09:42:21;97705.66;;;18.51;82.48
14242;BME280;7205;50.864;12.766;2022-07-30T09:44:51;97702.91;;;18.58;82.97
14242;BME280;7205;50.864;12.766;2022-07-30T09:47:34;97706.97;;;18.60;82.38
14242;BME280;7205;50.864;12.766;2022-07-30T09:50:04;97709.22;;;18.63;81.97
14242;BME280;7205;50.864;12.766;2022-07-30T09:52:31;97709.78;;;18.65;82.71
14242;BME280;7205;50.864;12.766;2022-07-30T09:55:02;97701.91;;;18.70;82.10
14242;BME280;7205;50.864;12.766;2022-07-30T09:57:30;97708.91;;;18.71;82.08
14242;BME280;7205;50.864;12.766;2022-07-30T10:00:18;97705.41;;;18.71;81.80
14242;BME280;7205;50.864;12.766;2022-07-30T10:02:51;97710.69;;;18.59;80.66
14242;BME280;7205;50.864;12.766;2022-07-30T10:05:50;97718.13;;;18.39;80.78
14242;BME280;7205;50.864;12.766;2022-07-30T10:08:17;97716.66;;;18.19;80.87
14242;BME280;7205;50.864;12.766;2022-07-30T10:10:46;97715.88;;;17.94;81.12
14242;BME280;7205;50.864;12.766;2022-07-30T10:13:19;97716.28;;;17.73;82.92
14242;BME280;7205;50.864;12.766;2022-07-30T10:15:48;97717.63;;;17.57;83.76
14242;BME280;7205;50.864;12.766;2022-07-30T10:18:15;97722.00;;;17.45;84.45
14242;BME280;7205;50.864;12.766;2022-07-30T10:20:49;97720.84;;;17.34;86.00
14242;BME280;7205;50.864;12.766;2022-07-30T10:23:51;97723.94;;;17.31;87.06
14242;BME280;7205;50.864;12.766;2022-07-30T10:27:21;97725.47;;;17.21;87.21
14242;BME280;7205;50.864;12.766;2022-07-30T10:30:33;97729.34;;;17.18;88.50
14242;BME280;7205;50.864;12.766;2022-07-30T10:35:55;97729.53;;;17.23;90.19
14242;BME280;7205;50.864;12.766;2022-07-30T10:38:30;97725.63;;;17.26;90.56
14242;BME280;7205;50.864;12.766;2022-07-30T10:41:07;97724.75;;;17.32;90.84
14242;BME280;7205;50.864;12.766;2022-07-30T10:46:59;97720.59;;;17.42;92.40
14242;BME280;7205;50.864;12.766;2022-07-30T10:49:32;97724.47;;;17.53;92.66
14242;BME280;7205;50.864;12.766;2022-07-30T10:52:00;97731.16;;;17.62;93.17
14242;BME280;7205;50.864;12.766;2022-07-30T10:54:35;97725.91;;;17.74;93.55
14242;BME280;7205;50.864;12.766;2022-07-30T10:57:17;97726.25;;;17.84;93.38
14242;BME280;7205;50.864;12.766;2022-07-30T11:00:12;97725.31;;;17.96;93.29
14242;BME280;7205;50.864;12.766;2022-07-30T11:03:13;97724.16;;;18.10;93.16
14242;BME280;7205;50.864;12.766;2022-07-30T11:05:41;97723.88;;;18.18;92.51
14242;BME280;7205;50.864;12.766;2022-07-30T11:08:30;97729.38;;;18.23;91.81
14242;BME280;7205;50.864;12.766;2022-07-30T11:10:58;97738.75;;;18.32;91.88
14242;BME280;7205;50.864;12.766;2022-07-30T11:13:47;97736.00;;;18.39;90.83
14242;BME280;7205;50.864;12.766;2022-07-30T11:16:15;97731.19;;;18.47;90.61
14242;BME280;7205;50.864;12.766;2022-07-30T11:19:10;97731.28;;;18.59;90.18
14242;BME280;7205;50.864;12.766;2022-07-30T11:21:42;97731.72;;;18.74;89.49
14242;BME280;7205;50.864;12.766;2022-07-30T11:27:33;97727.78;;;18.77;87.07
14242;BME280;7205;50.864;12.766;2022-07-30T11:30:01;97725.41;;;18.87;87.68
14242;BME280;7205;50.864;12.766;2022-07-30T11:32:30;97734.66;;;19.02;87.45
14242;BME280;7205;50.864;12.766;2022-07-30T11:35:18;97733.75;;;19.08;85.12
14242;BME280;7205;50.864;12.766;2022-07-30T11:37:57;97730.25;;;19.08;83.92
14242;BME280;7205;50.864;12.766;2022-07-30T11:40:25;97736.19;;;19.10;83.65
14242;BME280;7205;50.864;12.766;2022-07-30T11:43:14;97727.34;;;19.09;83.58
14242;BME280;7205;50.864;12.766;2022-07-30T11:45:42;97731.00;;;19.15;83.56
14242;BME280;7205;50.864;12.766;2022-07-30T11:48:11;97725.06;;;19.24;84.00
14242;BME280;7205;50.864;12.766;2022-07-30T11:50:40;97725.16;;;19.36;82.33
14242;BME280;7205;50.864;12.766;2022-07-30T11:53:09;97739.25;;;19.43;80.97
14242;BME280;7205;50.864;12.766;2022-07-30T11:55:38;97728.81;;;19.53;80.56
14242;BME280;7205;50.864;12.766;2022-07-30T11:58:09;97737.94;;;19.63;79.73
14242;BME280;7205;50.864;12.766;2022-07-30T12:00:37;97741.44;;;19.64;78.23
14242;BME280;7205;50.864;12.766;2022-07-30T12:03:09;97742.09;;;19.59;77.86
14242;BME280;7205;50.864;12.766;2022-07-30T12:05:37;97740.00;;;19.61;78.14
14242;BME280;7205;50.864;12.766;2022-07-30T12:08:08;97745.84;;;19.70;78.08
14242;BME280;7205;50.864;12.766;2022-07-30T12:10:35;97744.25;;;19.80;77.75
14242;BME280;7205;50.864;12.766;2022-07-30T12:13:08;97737.63;;;19.94;77.83
14242;BME280;7205;50.864;12.766;2022-07-30T12:15:37;97736.38;;;20.20;78.28
14242;BME280;7205;50.864;12.766;2022-07-30T12:18:04;97736.59;;;20.53;77.30
14242;BME280;7205;50.864;12.766;2022-07-30T12:20:32;97728.63;;;20.81;76.64
14242;BME280;7205;50.864;12.766;2022-07-30T12:23:00;97741.63;;;21.12;75.15
14242;BME280;7205;50.864;12.766;2022-07-30T12:25:29;97736.88;;;21.31;72.36
14242;BME280;7205;50.864;12.766;2022-07-30T12:27:56;97740.06;;;21.45;70.96
14242;BME280;7205;50.864;12.766;2022-07-30T12:30:23;97749.34;;;21.54;70.44
14242;BME280;7205;50.864;12.766;2022-07-30T12:32:52;97751.69;;;21.62;69.75
14242;BME280;7205;50.864;12.766;2022-07-30T12:35:20;97753.88;;;21.65;68.86
14242;BME280;7205;50.864;12.766;2022-07-30T12:38:03;97753.06;;;21.64;68.46
14242;BME280;7205;50.864;12.766;2022-07-30T12:40:31;97744.81;;;21.71;68.79
14242;BME280;7205;50.864;12.766;2022-07-30T12:42:58;97748.78;;;21.80;69.38
14242;BME280;7205;50.864;12.766;2022-07-30T12:45:31;97751.16;;;21.93;69.06
14242;BME280;7205;50.864;12.766;2022-07-30T12:48:02;97754.50;;;22.00;67.32
14242;BME280;7205;50.864;12.766;2022-07-30T12:51:04;97745.59;;;21.99;67.30
14242;BME280;7205;50.864;12.766;2022-07-30T12:53:51;97747.16;;;22.12;67.80
14242;BME280;7205;50.864;12.766;2022-07-30T12:56:32;97742.31;;;22.30;67.01
14242;BME280;7205;50.864;12.766;2022-07-30T12:59:20;97744.34;;;22.40;66.03
14242;BME280;7205;50.864;12.766;2022-07-30T13:02:09;97741.16;;;22.43;65.07
14242;BME280;7205;50.864;12.766;2022-07-30T13:04:50;97744.69;;;22.44;65.28
14242;BME280;7205;50.864;12.766;2022-07-30T13:07:21;97739.06;;;22.45;63.96
14242;BME280;7205;50.864;12.766;2022-07-30T13:10:09;97750.31;;;22.42;63.85
14242;BME280;7205;50.864;12.766;2022-07-30T13:12:40;97740.78;;;22.34;63.98
14242;BME280;7205;50.864;12.766;2022-07-30T13:15:15;97743.13;;;22.31;64.34
14242;BME280;7205;50.864;12.766;2022-07-30T13:17:51;97750.16;;;22.32;64.11
14242;BME280;7205;50.864;12.766;2022-07-30T13:20:19;97756.34;;;22.32;63.83
14242;BME280;7205;50.864;12.766;2022-07-30T13:22:49;97746.97;;;22.35;64.32
14242;BME280;7205;50.864;12.766;2022-07-30T13:25:18;97749.81;;;22.45;64.21
14242;BME280;7205;50.864;12.766;2022-07-30T13:27:47;97747.88;;;22.57;64.17
14242;BME280;7205;50.864;12.766;2022-07-30T13:30:14;97752.88;;;22.70;64.06
14242;BME280;7205;50.864;12.766;2022-07-30T13:32:41;97758.72;;;22.84;63.45
14242;BME280;7205;50.864;12.766;2022-07-30T13:35:08;97756.41;;;22.92;62.62
14242;BME280;7205;50.864;12.766;2022-07-30T13:37:35;97756.69;;;22.96;62.00
14242;BME280;7205;50.864;12.766;2022-07-30T13:40:03;97754.56;;;22.98;61.82